Time;durP1;ratioP1;P1;durP2;ratioP2;P2;SDS_P1;SDS_P2;PMS_P1;PMS_P2;Temp;Humidity;BMP_temperature;BMP_pressure;BME280_temperature;BME280_humidity;BME280_pressure;Samples;Min_cycle;Max_cycle;Signal;HPM_P1;HPM_P2
2023/09/24 00:01:12;;;;;;;8.88;5.22;;;;;;;14.73;62.24;100738.72;5053597;27;96712;-86
2023/09/24 00:03:38;;;;;;;7.25;5.10;;;;;;;14.64;62.17;100733.84;5053274;27;97443;-83
2023/09/24 00:06:09;;;;;;;13.88;5.05;;;;;;;14.65;62.31;100728.47;5036209;27;97982;-85
2023/09/24 00:08:35;;;;;;;8.65;4.93;;;;;;;14.64;62.62;100739.13;5052047;27;97943;-85
2023/09/24 00:11:02;;;;;;;10.02;4.63;;;;;;;14.48;62.58;100713.34;5053348;27;97155;-85
2023/09/24 00:13:28;;;;;;;13.15;5.57;;;;;;;14.62;62.18;100738.34;5033011;27;97229;-85
2023/09/24 00:15:54;;;;;;;9.45;5.82;;;;;;;14.48;62.53;100720.41;5010207;28;101544;-85
2023/09/24 00:18:21;;;;;;;11.23;5.38;;;;;;;14.47;62.69;100722.19;5050754;27;97940;-85
2023/09/24 00:20:46;;;;;;;7.35;5.22;;;;;;;14.45;62.47;100709.97;5026464;27;96876;-85
2023/09/24 00:23:12;;;;;;;10.50;6.25;;;;;;;14.46;62.37;100717.00;5036515;27;97325;-85
2023/09/24 00:25:38;;;;;;;8.02;5.68;;;;;;;14.50;62.42;100729.13;5052201;27;97376;-86
2023/09/24 00:28:04;;;;;;;10.88;5.50;;;;;;;14.53;62.71;100729.03;5052367;27;98301;-85
2023/09/24 00:30:33;;;;;;;8.10;5.32;;;;;;;14.48;62.45;100721.25;5016390;27;98216;-85
2023/09/24 00:32:59;;;;;;;9.00;5.05;;;;;;;14.47;62.51;100722.19;5052968;27;96935;-85
2023/09/24 00:35:25;;;;;;;11.32;7.28;;;;;;;14.47;62.35;100722.19;5035397;27;101506;-84
2023/09/24 00:37:50;;;;;;;10.80;6.30;;;;;;;14.39;62.65;100729.59;5052423;27;98719;-85
2023/09/24 00:40:18;;;;;;;8.38;5.72;;;;;;;14.33;62.79;100721.09;5052262;27;97428;-85
2023/09/24 00:42:44;;;;;;;11.07;6.97;;;;;;;14.34;62.85;100723.66;5052595;27;96805;-86
2023/09/24 00:45:11;;;;;;;8.38;7.43;;;;;;;14.21;62.89;100707.47;5035456;27;98130;-85
2023/09/24 00:47:38;;;;;;;9.07;6.70;;;;;;;14.22;62.96;100718.91;5051879;27;97879;-85
2023/09/24 00:50:08;;;;;;;7.90;7.10;;;;;;;14.31;62.78;100742.28;5031895;27;97423;-85
2023/09/24 00:52:34;;;;;;;7.57;6.80;;;;;;;14.23;62.61;100721.47;5034354;27;97346;-85
2023/09/24 00:55:02;;;;;;;11.45;7.65;;;;;;;14.28;62.82;100734.47;5018300;27;101672;-85
2023/09/24 00:57:28;;;;;;;6.53;5.93;;;;;;;14.26;62.97;100742.47;5013684;27;101627;-84
2023/09/24 00:59:55;;;;;;;8.07;7.38;;;;;;;14.25;62.47;100740.78;5034883;27;97248;-85
2023/09/24 01:02:20;;;;;;;7.35;6.65;;;;;;;14.27;62.78;100745.97;5009270;28;96892;-84
2023/09/24 01:04:49;;;;;;;9.75;8.18;;;;;;;14.25;62.39;100747.81;5048743;27;98076;-85
2023/09/24 01:07:14;;;;;;;10.27;8.38;;;;;;;14.18;62.63;100749.84;5013089;27;99782;-85
2023/09/24 01:09:42;;;;;;;13.15;12.18;;;;;;;14.22;62.58;100753.22;5048415;27;96998;-85
2023/09/24 01:12:20;;;;;;;9.20;8.38;;;;;;;14.03;62.43;100724.97;5018312;27;96976;-84
2023/09/24 01:14:46;;;;;;;17.25;15.90;;;;;;;14.18;62.54;100760.41;5050455;27;98566;-84
2023/09/24 01:17:14;;;;;;;8.07;3.28;;;;;;;14.11;62.82;100769.53;5038564;27;97282;-85
2023/09/24 01:19:40;;;;;;;3.65;2.50;;;;;;;14.06;62.56;100763.56;5034555;27;97448;-85
2023/09/24 01:22:06;;;;;;;4.07;3.17;;;;;;;14.04;62.73;100765.41;5052657;27;96859;-85
2023/09/24 01:24:32;;;;;;;6.03;3.05;;;;;;;14.10;62.59;100777.50;5034682;27;100764;-85
2023/09/24 01:26:57;;;;;;;4.72;3.08;;;;;;;13.93;62.70;100751.78;5051031;27;97625;-84
2023/09/24 01:29:23;;;;;;;4.97;2.80;;;;;;;14.06;62.63;100786.47;5034513;27;96814;-85
2023/09/24 01:31:50;;;;;;;4.25;2.70;;;;;;;14.10;62.66;100794.19;5051388;27;96907;-85
2023/09/24 01:34:16;;;;;;;3.90;2.45;;;;;;;14.10;62.47;100791.56;5035056;27;97371;-85
2023/09/24 01:36:41;;;;;;;4.93;2.90;;;;;;;14.10;62.72;100790.69;5051298;27;101113;-85
2023/09/24 01:39:07;;;;;;;5.75;3.08;;;;;;;14.06;62.58;100784.69;5051214;27;97441;-85
2023/09/24 01:41:32;;;;;;;6.07;3.53;;;;;;;14.06;63.06;100795.25;5053627;27;97045;-84
2023/09/24 01:43:59;;;;;;;4.85;2.95;;;;;;;14.05;62.52;100793.53;5017597;27;100944;-85
2023/09/24 01:46:25;;;;;;;5.72;4.93;;;;;;;14.04;62.71;100805.84;5048867;27;98253;-84
2023/09/24 01:48:54;;;;;;;7.65;6.82;;;;;;;13.92;62.87;100782.59;5027792;27;96829;-85
2023/09/24 01:51:20;;;;;;;5.80;5.30;;;;;;;14.07;62.77;100811.94;5018752;27;96793;-84
2023/09/24 01:53:47;;;;;;;7.10;6.50;;;;;;;14.06;63.05;100815.50;5016800;27;101208;-85
2023/09/24 01:56:14;;;;;;;8.30;7.53;;;;;;;13.95;63.17;100798.31;5040085;27;100292;-85
2023/09/24 01:58:39;;;;;;;7.68;6.97;;;;;;;13.97;62.75;100811.47;5021472;27;97040;-85
2023/09/24 02:01:06;;;;;;;7.88;7.20;;;;;;;14.02;63.06;100825.31;5034990;27;97080;-85
2023/09/24 02:03:32;;;;;;;9.82;6.25;;;;;;;14.01;62.73;100832.38;5017627;27;101320;-85
2023/09/24 02:05:58;;;;;;;7.22;6.30;;;;;;;13.87;62.90;100821.50;5033316;27;96937;-85
2023/09/24 02:08:23;;;;;;;8.32;7.20;;;;;;;13.96;63.11;100836.13;5034073;27;97228;-85
2023/09/24 02:10:49;;;;;;;7.20;4.93;;;;;;;13.99;63.09;100836.00;5051594;27;97012;-84
2023/09/24 02:13:15;;;;;;;6.93;5.63;;;;;;;13.92;62.93;100827.47;5051423;27;98059;-85
2023/09/24 02:15:45;;;;;;;8.35;6.38;;;;;;;13.89;63.06;100824.97;5050912;27;98134;-85
2023/09/24 02:18:11;;;;;;;7.00;6.32;;;;;;;13.85;62.74;100815.47;5033202;27;96759;-83
2023/09/24 02:20:41;;;;;;;6.70;5.38;;;;;;;13.92;62.97;100839.81;5034297;27;96848;-85
2023/09/24 02:23:07;;;;;;;5.85;5.38;;;;;;;13.92;62.94;100843.31;5030862;27;100320;-85
2023/09/24 02:25:37;;;;;;;6.68;5.60;;;;;;;13.79;62.94;100824.47;5016713;27;101498;-85
2023/09/24 02:28:03;;;;;;;6.65;6.05;;;;;;;13.93;62.47;100846.81;5030756;27;98094;-85
2023/09/24 02:30:29;;;;;;;7.32;4.30;;;;;;;13.81;63.03;100830.53;5032325;27;97441;-85
2023/09/24 02:32:56;;;;;;;7.13;6.50;;;;;;;13.68;62.85;100810.84;5034048;27;98091;-84
2023/09/24 02:35:23;;;;;;;6.32;4.80;;;;;;;13.91;63.19;100860.06;5032130;27;100928;-84
2023/09/24 02:37:52;;;;;;;5.15;4.75;;;;;;;13.80;63.05;100857.84;5048028;27;96915;-84
2023/09/24 02:40:28;;;;;;;15.35;5.47;;;;;;;13.76;63.37;100852.75;5040605;27;96790;-85
2023/09/24 02:42:58;;;;;;;8.10;4.25;;;;;;;13.85;62.83;100872.66;5050800;27;98875;-85
2023/09/24 02:45:26;;;;;;;6.20;4.78;;;;;;;13.82;63.50;100871.84;5034049;27;101347;-83
2023/09/24 02:47:52;;;;;;;5.88;3.72;;;;;;;13.85;63.04;100873.50;5025696;27;97378;-85
2023/09/24 02:50:27;;;;;;;8.27;5.20;;;;;;;13.72;63.40;100851.16;5033714;27;97319;-85
2023/09/24 02:52:59;;;;;;;6.45;5.40;;;;;;;13.79;63.44;100879.88;5039844;27;98190;-86
2023/09/24 02:55:27;;;;;;;5.97;5.05;;;;;;;13.81;63.35;100885.94;5032461;27;97585;-85
2023/09/24 02:57:53;;;;;;;4.57;4.18;;;;;;;13.80;63.11;100888.66;5031230;27;97946;-83
2023/09/24 03:00:27;;;;;;;7.22;5.63;;;;;;;13.79;63.34;100900.13;5027514;27;96982;-84
2023/09/24 03:02:58;;;;;;;6.90;6.20;;;;;;;13.79;63.28;100893.06;5034216;27;102148;-85
2023/09/24 03:05:24;;;;;;;8.45;5.53;;;;;;;13.76;62.89;100887.91;5047959;27;101803;-85
2023/09/24 03:07:53;;;;;;;5.32;2.53;;;;;;;13.74;62.88;100891.53;5049664;27;97214;-85
2023/09/24 03:10:20;;;;;;;3.78;2.80;;;;;;;13.78;63.33;100903.66;5029779;27;96912;-84
2023/09/24 03:12:47;;;;;;;3.40;2.80;;;;;;;13.78;62.93;100904.53;5024045;27;101927;-85
2023/09/24 03:15:13;;;;;;;6.10;2.67;;;;;;;13.79;63.07;100913.34;5012497;27;101903;-85
2023/09/24 03:17:42;;;;;;;6.65;3.30;;;;;;;13.76;63.22;100916.09;5032857;27;97292;-85
2023/09/24 03:20:17;;;;;;;5.85;3.53;;;;;;;13.58;63.21;100883.31;5033246;27;97107;-84
2023/09/24 03:22:48;;;;;;;15.82;2.75;;;;;;;13.71;63.63;100907.47;5020278;27;101583;-84
2023/09/24 03:25:34;;;;;;;3.73;1.97;;;;;;;13.71;63.60;100907.47;5020802;27;101420;-85
2023/09/24 03:28:03;;;;;;;5.47;2.22;;;;;;;13.73;63.34;100921.44;5052876;27;96662;-84
2023/09/24 03:30:29;;;;;;;3.28;2.20;;;;;;;13.70;63.43;100922.44;5037319;27;96891;-85
2023/09/24 03:32:55;;;;;;;4.90;2.25;;;;;;;13.69;63.74;100923.34;5035707;27;99872;-84
2023/09/24 03:35:24;;;;;;;6.20;2.30;;;;;;;13.72;63.62;100919.75;5036051;27;98369;-85
2023/09/24 03:37:50;;;;;;;3.60;2.30;;;;;;;13.67;63.71;100917.28;5033801;27;97286;-84
2023/09/24 03:40:19;;;;;;;6.95;2.65;;;;;;;13.69;63.37;100923.34;5028772;27;96880;-85
2023/09/24 03:42:45;;;;;;;6.20;2.67;;;;;;;13.58;63.24;100909.69;5053430;27;97942;-84
2023/09/24 03:45:12;;;;;;;6.68;2.60;;;;;;;13.69;63.63;100944.47;5037168;27;97884;-85
2023/09/24 03:47:38;;;;;;;3.65;2.60;;;;;;;13.72;63.43;100946.97;5027662;27;96988;-85
2023/09/24 03:50:06;;;;;;;7.93;2.47;;;;;;;13.73;63.73;100955.75;5036681;27;96892;-84
2023/09/24 03:52:32;;;;;;;2.88;2.13;;;;;;;13.69;63.96;100944.47;5019305;27;101654;-85
2023/09/24 03:55:00;;;;;;;3.72;2.30;;;;;;;13.72;63.43;100954.03;5054429;27;97865;-84
2023/09/24 03:57:29;;;;;;;3.40;2.10;;;;;;;13.69;63.28;100948.88;5017490;27;97022;-84
2023/09/24 03:59:56;;;;;;;5.28;2.30;;;;;;;13.73;63.54;100958.38;5053917;27;96966;-85
2023/09/24 04:02:22;;;;;;;5.68;2.10;;;;;;;13.71;63.46;100958.47;5016195;27;101194;-85
2023/09/24 04:04:47;;;;;;;3.10;2.40;;;;;;;13.71;63.49;100960.25;5036497;27;101218;-85
2023/09/24 04:07:15;;;;;;;5.43;2.15;;;;;;;13.67;63.58;100959.50;5053132;27;96808;-85
2023/09/24 04:09:41;;;;;;;5.40;2.55;;;;;;;13.69;62.97;100962.06;5053827;27;97282;-85
2023/09/24 04:12:08;;;;;;;2.47;2.17;;;;;;;13.66;63.72;100965.66;5032387;28;101123;-85
2023/09/24 04:14:34;;;;;;;4.13;1.88;;;;;;;13.64;63.67;100964.84;5050793;27;97797;-85
2023/09/24 04:16:59;;;;;;;6.90;2.38;;;;;;;13.57;63.71;100961.59;5053044;27;97155;-85
2023/09/24 04:19:26;;;;;;;5.28;2.00;;;;;;;13.56;63.63;100972.22;5053081;27;97980;-84
2023/09/24 04:21:52;;;;;;;3.83;2.15;;;;;;;13.49;63.98;100963.63;5053777;27;99309;-85
2023/09/24 04:24:18;;;;;;;4.45;2.25;;;;;;;13.51;64.02;100967.09;5033572;27;98278;-85
2023/09/24 04:26:45;;;;;;;5.88;2.28;;;;;;;13.46;63.95;100966.38;5030398;27;97308;-85
2023/09/24 04:29:11;;;;;;;3.95;2.50;;;;;;;13.48;64.08;100974.25;5036193;27;96832;-85
2023/09/24 04:31:37;;;;;;;6.00;2.53;;;;;;;13.44;64.13;100977.91;5032128;27;97365;-85
2023/09/24 04:34:03;;;;;;;7.30;2.22;;;;;;;13.34;64.43;100954.50;5052095;27;101439;-85
2023/09/24 04:36:29;;;;;;;5.82;2.13;;;;;;;13.35;64.07;100968.53;5032504;27;96783;-84
2023/09/24 04:38:54;;;;;;;3.35;2.10;;;;;;;13.28;64.20;100962.63;5033896;27;97725;-84
2023/09/24 04:41:20;;;;;;;2.88;1.80;;;;;;;13.27;64.38;100960.94;5052905;27;98695;-84
2023/09/24 04:43:47;;;;;;;4.78;2.08;;;;;;;13.39;63.99;100982.50;5033784;27;98523;-84
2023/09/24 04:46:13;;;;;;;3.65;2.55;;;;;;;13.37;63.45;100985.19;5034040;27;97133;-85
2023/09/24 04:48:38;;;;;;;6.25;3.78;;;;;;;13.40;63.67;101000.03;5017545;27;96932;-85
2023/09/24 04:51:04;;;;;;;6.00;2.30;;;;;;;13.36;64.23;101000.16;5035428;27;100265;-85
2023/09/24 04:53:30;;;;;;;3.33;1.95;;;;;;;13.38;64.04;100994.84;5023613;28;97374;-83
2023/09/24 04:55:57;;;;;;;3.40;1.92;;;;;;;13.24;64.14;100979.44;5052125;27;96881;-84
2023/09/24 04:58:23;;;;;;;3.10;1.83;;;;;;;13.39;64.21;100998.31;5029799;27;97350;-85
2023/09/24 05:00:49;;;;;;;4.38;2.30;;;;;;;13.39;64.08;101016.78;5051874;27;97733;-85
2023/09/24 05:03:15;;;;;;;3.45;2.05;;;;;;;13.31;63.76;101009.13;5035163;27;101756;-83
2023/09/24 05:05:42;;;;;;;3.25;2.33;;;;;;;13.51;63.54;101032.19;5042832;27;97107;-85
2023/09/24 05:08:08;;;;;;;3.17;1.92;;;;;;;13.55;63.89;101028.50;5051381;27;96964;-84
2023/09/24 05:10:36;;;;;;;4.47;2.47;;;;;;;13.52;63.23;101020.69;5050313;27;97669;-85
2023/09/24 05:13:03;;;;;;;5.00;2.55;;;;;;;13.65;63.42;101031.69;5033899;27;98508;-85
2023/09/24 05:15:29;;;;;;;7.22;2.47;;;;;;;13.77;62.96;101052.38;5034605;27;96991;-84
2023/09/24 05:17:55;;;;;;;4.80;1.85;;;;;;;13.70;62.75;101027.09;5023306;27;97306;-84
2023/09/24 05:20:21;;;;;;;6.13;2.67;;;;;;;13.87;62.93;101056.38;5046613;27;101811;-85
2023/09/24 05:22:47;;;;;;;5.35;2.55;;;;;;;13.87;62.65;101048.47;5047430;27;97116;-85
2023/09/24 05:25:13;;;;;;;4.90;2.30;;;;;;;13.94;62.56;101054.41;5053542;27;96662;-85
2023/09/24 05:27:38;;;;;;;4.55;1.98;;;;;;;13.90;62.56;101052.78;5026121;27;97098;-84
2023/09/24 05:30:07;;;;;;;8.23;2.30;;;;;;;14.02;62.65;101063.75;5031968;27;98250;-85
2023/09/24 05:32:33;;;;;;;7.18;2.20;;;;;;;14.08;62.65;101069.72;5015454;27;100055;-85
2023/09/24 05:34:59;;;;;;;5.00;2.80;;;;;;;14.06;62.49;101048.66;5033988;27;96882;-85
2023/09/24 05:37:24;;;;;;;3.45;2.05;;;;;;;14.21;61.71;101061.28;5046616;27;97142;-85
2023/09/24 05:39:50;;;;;;;9.27;2.63;;;;;;;14.39;61.65;101066.78;5031206;27;98557;-85
2023/09/24 05:42:16;;;;;;;7.85;2.47;;;;;;;14.63;61.44;101081.75;5048160;27;98112;-85
2023/09/24 05:44:43;;;;;;;4.90;2.25;;;;;;;14.86;61.16;101069.41;5027808;27;97260;-85
2023/09/24 05:47:08;;;;;;;3.20;2.45;;;;;;;15.12;60.22;101090.34;5025509;27;97510;-85
2023/09/24 05:49:34;;;;;;;5.65;2.20;;;;;;;15.26;59.86;101087.16;5043437;27;97517;-83
2023/09/24 05:52:00;;;;;;;3.95;2.30;;;;;;;15.47;59.02;101095.13;5026205;27;100192;-85
2023/09/24 05:54:25;;;;;;;5.40;2.67;;;;;;;15.72;58.29;101097.63;5031104;27;97079;-84
2023/09/24 05:56:50;;;;;;;4.57;2.50;;;;;;;16.09;57.80;101107.47;5047478;27;97219;-84
2023/09/24 05:59:19;;;;;;;4.53;2.53;;;;;;;16.38;56.92;101102.66;5050180;27;97450;-85
2023/09/24 06:01:44;;;;;;;4.07;2.05;;;;;;;16.71;56.25;101102.84;5030604;27;101245;-86
2023/09/24 06:04:10;;;;;;;8.02;2.90;;;;;;;16.85;55.55;101096.94;5051407;27;97153;-84
2023/09/24 06:06:36;;;;;;;5.85;2.42;;;;;;;17.04;55.14;101097.75;5033811;27;96865;-84
2023/09/24 06:09:08;;;;;;;5.65;2.63;;;;;;;17.49;54.32;101119.44;5048998;27;100696;-85
2023/09/24 06:11:35;;;;;;;;;;;;;;;17.85;52.98;101117.59;5027970;27;101689;-83
2023/09/24 06:14:08;;;;;;;9.55;2.50;;;;;;;18.43;52.21;101121.63;5014585;27;96800;-85
2023/09/24 06:16:36;;;;;;;5.07;2.53;;;;;;;18.95;50.80;101109.94;5032538;27;96923;-86
2023/09/24 06:19:03;;;;;;;5.47;2.35;;;;;;;19.44;49.50;101097.31;5023326;27;101409;-84
2023/09/24 06:21:28;;;;;;;7.93;3.13;;;;;;;20.43;47.49;101110.88;5046982;27;97475;-84
2023/09/24 06:23:55;;;;;;;3.35;2.42;;;;;;;21.52;45.43;101108.34;5028573;28;96984;-85
2023/09/24 06:26:21;;;;;;;8.57;3.13;;;;;;;22.62;43.31;101111.34;5051714;27;97217;-85
2023/09/24 06:28:47;;;;;;;6.07;2.40;;;;;;;23.87;41.17;101100.28;5019903;27;97786;-87
2023/09/24 06:31:12;;;;;;;4.13;2.35;;;;;;;24.72;39.22;101105.19;5048612;27;97750;-86
2023/09/24 06:33:39;;;;;;;4.20;1.90;;;;;;;25.00;38.70;101103.78;5031458;27;97260;-85
2023/09/24 06:36:05;;;;;;;4.22;1.95;;;;;;;25.35;38.04;101100.03;5014573;27;97148;-88
2023/09/24 06:38:32;;;;;;;7.93;2.38;;;;;;;26.17;36.88;101106.41;5012994;27;98145;-85
2023/09/24 06:41:02;;;;;;;7.10;3.15;;;;;;;26.33;36.30;101107.75;5037585;27;97983;-83
2023/09/24 06:43:29;;;;;;;5.28;2.35;;;;;;;27.03;35.44;101106.00;5025655;27;97668;-83
2023/09/24 06:45:55;;;;;;;4.10;2.22;;;;;;;26.67;35.49;101115.53;5036858;27;97491;-82
2023/09/24 06:48:24;;;;;;;4.75;2.60;;;;;;;27.13;34.83;101093.38;5042124;27;97863;-84
2023/09/24 06:50:50;;;;;;;6.97;2.47;;;;;;;27.59;34.27;101105.31;5041479;27;98692;-85
2023/09/24 06:53:16;;;;;;;3.45;2.22;;;;;;;29.00;32.51;101107.06;5044941;27;97737;-85
2023/09/24 06:55:42;;;;;;;5.18;2.00;;;;;;;29.08;32.17;101117.97;5043686;27;97468;-82
2023/09/24 06:58:08;;;;;;;3.80;2.35;;;;;;;28.32;33.25;101115.50;5037387;27;98860;-81
2023/09/24 07:00:33;;;;;;;5.40;2.05;;;;;;;27.77;33.91;101110.81;5040349;27;97848;-83
2023/09/24 07:02:59;;;;;;;3.72;2.35;;;;;;;28.24;32.87;101128.91;5037272;27;97861;-86
2023/09/24 07:05:25;;;;;;;6.03;2.20;;;;;;;26.91;34.86;101117.84;5044114;27;96805;-84
2023/09/24 07:07:51;;;;;;;5.47;2.20;;;;;;;26.48;36.02;101129.78;5032432;27;98566;-81
2023/09/24 07:10:17;;;;;;;5.15;2.53;;;;;;;25.93;36.83;101136.28;5019684;27;97890;-82
2023/09/24 07:12:43;;;;;;;3.38;2.00;;;;;;;25.75;37.21;101138.69;5038220;27;97563;-82
2023/09/24 07:15:09;;;;;;;4.90;2.17;;;;;;;26.71;35.71;101135.84;5044167;27;97880;-81
2023/09/24 07:17:35;;;;;;;4.45;2.35;;;;;;;27.05;35.16;101147.97;5031436;27;98193;-83
2023/09/24 07:20:02;;;;;;;5.13;2.38;;;;;;;27.30;34.71;101145.75;5036368;27;97775;-85
2023/09/24 07:22:29;;;;;;;7.65;2.90;;;;;;;29.08;32.23;101139.59;5046064;27;97382;-83
2023/09/24 07:24:55;;;;;;;5.45;2.08;;;;;;;29.58;31.95;101139.06;5035594;27;96812;-85
2023/09/24 07:27:21;;;;;;;6.07;3.08;;;;;;;30.64;29.93;101128.94;5007431;28;101611;-86
2023/09/24 07:29:46;;;;;;;3.67;2.00;;;;;;;31.65;29.10;101143.41;5045541;27;97861;-86
2023/09/24 07:32:12;;;;;;;4.75;2.50;;;;;;;30.67;29.91;101141.31;5025270;27;96955;-86
2023/09/24 07:34:38;;;;;;;10.27;2.20;;;;;;;29.23;31.92;101148.88;5044942;27;97232;-85
2023/09/24 07:37:06;;;;;;;3.42;2.10;;;;;;;30.34;30.39;101154.72;5046315;27;98134;-84
2023/09/24 07:39:32;;;;;;;5.90;2.70;;;;;;;31.49;28.92;101136.13;5045906;27;97627;-86
2023/09/24 07:41:57;;;;;;;4.82;2.70;;;;;;;33.64;26.42;101149.63;5028036;27;98996;-85
2023/09/24 07:44:23;;;;;;;3.08;2.53;;;;;;;35.56;24.62;101140.44;5029142;27;97290;-84
2023/09/24 07:46:48;;;;;;;9.60;2.38;;;;;;;37.21;22.74;101149.78;5019511;27;97709;-87
2023/09/24 07:49:15;;;;;;;4.53;2.22;;;;;;;38.71;21.88;101148.19;5000348;28;101638;-79
2023/09/24 07:51:41;;;;;;;3.15;2.20;;;;;;;39.44;20.68;101139.56;5045001;27;97574;-80
2023/09/24 07:54:07;;;;;;;4.47;2.45;;;;;;;40.57;19.70;101152.19;5018960;27;97962;-81
2023/09/24 07:56:34;;;;;;;11.52;10.63;;;;;;;40.00;19.55;101141.41;5029592;27;98148;-82
2023/09/24 07:59:02;;;;;;;5.05;2.30;;;;;;;40.47;19.62;101151.91;5035837;27;98143;-82
2023/09/24 08:01:27;;;;;;;2.85;2.08;;;;;;;40.97;19.49;101151.69;4994815;27;97166;-80
2023/09/24 08:03:53;;;;;;;3.60;2.22;;;;;;;41.40;19.01;101158.94;5038161;27;98425;-80
2023/09/24 08:06:19;;;;;;;3.92;2.40;;;;;;;41.97;18.65;101145.47;5033988;27;97603;-81
2023/09/24 08:08:44;;;;;;;5.72;3.35;;;;;;;43.04;17.54;101152.41;5045650;27;97529;-81
2023/09/24 08:11:10;;;;;;;4.10;2.10;;;;;;;44.32;16.38;101150.88;5015027;27;97270;-80
2023/09/24 08:13:35;;;;;;;3.95;2.13;;;;;;;45.48;16.04;101166.28;5049954;27;97247;-80
2023/09/24 08:16:01;;;;;;;4.75;2.88;;;;;;;46.60;14.87;101163.38;5049998;27;99470;-80
2023/09/24 08:18:26;;;;;;;3.85;2.53;;;;;;;46.49;14.82;101146.72;5012822;27;101208;-80
2023/09/24 08:20:55;;;;;;;6.60;1.92;;;;;;;47.46;14.70;101161.94;5012686;28;97698;-80
2023/09/24 08:23:23;;;;;;;3.85;2.50;;;;;;;47.95;14.04;101161.31;5048559;27;97509;-82
2023/09/24 08:25:52;;;;;;;3.60;2.50;;;;;;;48.30;13.81;101179.88;5046775;27;97562;-80
2023/09/24 08:28:18;;;;;;;2.80;1.95;;;;;;;48.56;13.48;101174.22;5031152;27;98130;-80
2023/09/24 08:30:44;;;;;;;3.80;2.65;;;;;;;49.05;13.32;101179.78;5048859;27;96759;-80
2023/09/24 08:33:10;;;;;;;5.22;3.10;;;;;;;49.79;13.12;101165.78;5047419;27;98254;-80
2023/09/24 08:35:36;;;;;;;4.45;3.00;;;;;;;49.93;12.89;101171.53;5027130;27;100750;-81
2023/09/24 08:38:02;;;;;;;5.45;4.53;;;;;;;49.99;12.70;101159.19;5029276;27;101764;-81
2023/09/24 08:40:30;;;;;;;6.68;2.72;;;;;;;50.28;12.34;101179.50;5048020;27;96937;-82
2023/09/24 08:42:56;;;;;;;3.20;2.13;;;;;;;50.10;12.04;101157.06;5030950;27;97566;-86
2023/09/24 08:45:26;;;;;;;19.88;18.33;;;;;;;50.25;12.68;101168.06;5046962;27;97580;-86
2023/09/24 08:47:52;;;;;;;4.72;3.20;;;;;;;50.60;12.18;101180.75;5046768;27;97310;-85
2023/09/24 08:50:18;;;;;;;7.35;5.07;;;;;;;50.78;12.39;101175.50;5046244;27;96862;-85
2023/09/24 08:52:45;;;;;;;4.13;2.72;;;;;;;51.69;11.56;101178.78;5032651;27;97442;-86
2023/09/24 08:55:12;;;;;;;4.78;3.03;;;;;;;51.48;11.64;101181.09;5048621;27;97527;-81
2023/09/24 08:57:41;;;;;;;6.45;3.83;;;;;;;51.43;11.80;101183.16;5048701;27;101092;-83
2023/09/24 09:00:11;;;;;;;6.50;3.38;;;;;;;51.91;11.29;101166.06;5014854;27;96765;-83
2023/09/24 09:02:40;;;;;;;5.60;2.90;;;;;;;52.55;11.04;101182.97;5049558;27;97261;-81
2023/09/24 09:05:22;;;;;;;4.70;3.28;;;;;;;52.93;11.04;101172.28;5012179;27;101246;-84
2023/09/24 09:07:56;;;;;;;5.95;2.97;;;;;;;52.85;11.32;101176.66;5031088;27;101301;-81
2023/09/24 09:10:30;;;;;;;4.22;3.20;;;;;;;52.84;10.92;101175.00;5048597;27;98087;-81
2023/09/24 09:13:10;;;;;;;3.20;2.90;;;;;;;53.45;10.50;101188.69;5031028;27;96857;-82
2023/09/24 09:15:38;;;;;;;3.15;2.85;;;;;;;53.20;10.69;101167.72;5044023;27;97898;-81
2023/09/24 09:18:06;;;;;;;6.43;3.13;;;;;;;53.13;10.75;101177.41;5043588;27;101509;-82
2023/09/24 09:20:43;;;;;;;4.40;3.10;;;;;;;52.84;10.42;101179.78;5021418;28;96809;-81
2023/09/24 09:23:18;;;;;;;3.97;2.80;;;;;;;52.92;11.08;101190.22;5030581;27;97219;-81
2023/09/24 09:25:48;;;;;;;4.80;3.20;;;;;;;52.77;11.03;101185.81;5042225;27;97623;-81
2023/09/24 09:28:27;;;;;;;3.35;2.85;;;;;;;53.13;11.09;101171.78;5044440;27;97892;-81
2023/09/24 09:31:10;;;;;;;3.45;3.13;;;;;;;53.23;10.81;101178.28;5044562;27;97404;-81
2023/09/24 09:33:41;;;;;;;5.32;3.25;;;;;;;52.96;10.67;101182.84;5047311;27;97219;-81
2023/09/24 09:36:33;;;;;;;11.30;3.47;;;;;;;53.13;10.71;101168.16;5009064;28;101181;-81
2023/09/24 09:38:59;;;;;;;7.15;4.50;;;;;;;53.12;11.01;101172.09;5029079;27;98087;-80
2023/09/24 09:41:26;;;;;;;4.38;3.80;;;;;;;52.65;11.32;101175.13;5052080;27;97209;-81
2023/09/24 09:43:52;;;;;;;4.33;3.30;;;;;;;51.78;11.19;101179.72;5033684;27;97683;-80
2023/09/24 09:46:20;;;;;;;5.77;3.23;;;;;;;50.99;11.52;101179.66;5034127;27;97704;-80
2023/09/24 09:48:51;;;;;;;3.22;2.95;;;;;;;50.36;12.43;101177.16;5050522;27;97255;-80
2023/09/24 09:51:23;;;;;;;6.13;3.00;;;;;;;49.37;12.95;101187.63;5042074;27;96856;-81
2023/09/24 09:54:08;;;;;;;4.10;2.40;;;;;;;48.65;12.86;101173.31;5031470;27;97417;-82
2023/09/24 09:56:57;;;;;;;4.07;2.72;;;;;;;47.55;13.46;101180.53;5051881;27;98084;-81
2023/09/24 09:59:48;;;;;;;2.25;2.05;;;;;;;46.63;14.74;101182.28;5018282;28;101575;-80
2023/09/24 10:02:33;;;;;;;3.78;2.30;;;;;;;44.44;16.04;101177.34;4987936;27;96838;-81
2023/09/24 10:04:59;;;;;;;4.32;2.17;;;;;;;41.94;17.49;101179.03;5046666;27;96940;-80
2023/09/24 10:07:25;;;;;;;16.73;2.70;;;;;;;39.72;19.68;101185.81;5033365;27;97676;-80
2023/09/24 10:09:52;;;;;;;3.92;1.83;;;;;;;37.43;20.90;101191.53;5017326;27;101138;-79
2023/09/24 10:12:56;;;;;;;5.45;2.28;;;;;;;36.01;22.85;101192.88;5051707;27;96859;-78
2023/09/24 10:15:32;;;;;;;4.57;2.10;;;;;;;34.42;24.51;101203.66;5022764;27;97208;-79
2023/09/24 10:18:07;;;;;;;3.47;1.77;;;;;;;33.59;25.84;101205.41;5033458;27;99307;-78
2023/09/24 10:20:59;;;;;;;3.45;1.60;;;;;;;33.08;26.10;101194.19;5041705;27;97511;-78
2023/09/24 10:23:31;;;;;;;4.07;1.90;;;;;;;32.29;26.98;101195.97;5043843;27;99023;-79
2023/09/24 10:26:44;;;;;;;2.70;1.80;;;;;;;31.54;27.57;101207.00;5053589;27;97515;-78
2023/09/24 10:29:19;;;;;;;3.67;1.70;;;;;;;31.00;28.71;101193.78;5045473;27;100432;-78
2023/09/24 10:32:08;;;;;;;5.10;3.00;;;;;;;30.50;29.05;101213.53;5031223;27;99361;-77
2023/09/24 10:34:54;;;;;;;4.07;2.45;;;;;;;29.98;29.97;101216.19;5050978;27;96709;-78
2023/09/24 10:37:27;;;;;;;4.63;4.25;;;;;;;30.05;29.99;101210.97;5050769;27;97232;-78
2023/09/24 10:42:34;;;;;;;6.68;6.07;;;;;;;30.39;30.14;101201.09;5032230;27;101277;-79
2023/09/24 10:45:19;;;;;;;;;;;;;;;30.33;30.13;101215.28;5051602;27;96755;-78
2023/09/24 10:47:46;;;;;;;20.13;18.50;;;;;;;29.86;30.05;101183.13;5037454;27;100952;-77
2023/09/24 10:50:19;;;;;;;25.35;23.65;;;;;;;29.70;30.65;101178.44;5050955;27;98198;-77
2023/09/24 10:52:49;;;;;;;31.02;26.23;;;;;;;29.23;30.75;101196.69;5051441;27;97904;-78
2023/09/24 10:55:39;;;;;;;39.30;35.03;;;;;;;29.02;31.13;101205.03;5052593;27;97148;-78
2023/09/24 10:58:13;;;;;;;16.13;15.00;;;;;;;28.88;31.87;101198.28;5024597;27;97464;-78
2023/09/24 11:00:39;;;;;;;15.98;14.63;;;;;;;28.83;31.96;101177.13;5013310;27;100790;-77
2023/09/24 11:03:06;;;;;;;16.65;15.50;;;;;;;28.82;31.94;101198.88;5050216;27;97992;-78
2023/09/24 11:05:44;;;;;;;12.48;11.40;;;;;;;28.49;32.28;101176.84;5051208;27;96857;-79
2023/09/24 11:08:11;;;;;;;8.82;8.13;;;;;;;28.51;32.40;101195.59;5026749;27;97194;-78
2023/09/24 11:10:37;;;;;;;9.57;8.80;;;;;;;28.28;33.11;101187.00;5052103;27;97518;-79
2023/09/24 11:13:03;;;;;;;5.55;2.88;;;;;;;28.11;32.98;101186.75;5032650;27;101440;-78
2023/09/24 11:15:36;;;;;;;3.78;1.90;;;;;;;27.61;34.13;101178.81;5050711;27;96814;-78
2023/09/24 11:18:02;;;;;;;3.45;1.58;;;;;;;27.74;34.25;101208.19;5050490;27;97511;-78
2023/09/24 11:20:31;;;;;;;8.07;4.32;;;;;;;27.58;34.89;101203.38;5033104;27;100365;-77
2023/09/24 11:22:56;;;;;;;8.05;7.45;;;;;;;27.43;35.19;101202.94;5032109;27;97935;-77
2023/09/24 11:25:22;;;;;;;12.68;11.80;;;;;;;27.00;35.28;101177.16;5051981;27;96890;-77
2023/09/24 11:27:52;;;;;;;8.00;1.80;;;;;;;26.41;35.67;101192.22;5050055;27;97072;-79
2023/09/24 11:30:19;;;;;;;5.32;2.38;;;;;;;26.04;35.91;101191.00;5032450;27;99570;-78